createdAt,value
2022-11-29T00:00:43.461Z,25.10
2022-11-29T00:01:43.539Z,24.10
2022-11-29T00:02:43.519Z,20.80
2022-11-29T00:03:43.443Z,21.40
2022-11-29T00:04:43.719Z,25.90
2022-11-29T00:05:43.404Z,23.20
2022-11-29T00:06:43.420Z,23.30
2022-11-29T00:07:43.456Z,22.90
2022-11-29T00:08:43.385Z,24.60
2022-11-29T00:09:43.369Z,26.70
2022-11-29T00:10:43.384Z,25.00
2022-11-29T00:11:43.373Z,24.40
2022-11-29T00:12:43.327Z,26.40
2022-11-29T00:13:43.322Z,22.40
2022-11-29T00:14:43.634Z,25.90
2022-11-29T00:15:43.306Z,24.70
2022-11-29T00:16:43.372Z,23.80
2022-11-29T00:17:43.305Z,24.90
2022-11-29T00:18:43.273Z,24.30
2022-11-29T00:19:43.261Z,24.50
2022-11-29T00:20:43.265Z,30.30
2022-11-29T00:21:43.261Z,27.10
2022-11-29T00:22:43.221Z,23.10
2022-11-29T00:23:43.227Z,25.50
2022-11-29T00:24:43.536Z,24.80
2022-11-29T00:25:43.183Z,27.40
2022-11-29T00:26:43.216Z,24.10
2022-11-29T00:27:43.171Z,27.10
2022-11-29T00:28:43.158Z,24.90
2022-11-29T00:29:43.149Z,23.40
2022-11-29T00:30:43.188Z,24.90
2022-11-29T00:31:43.140Z,25.70
2022-11-29T00:32:43.118Z,28.90
2022-11-29T00:33:43.114Z,26.50
2022-11-29T00:34:43.417Z,26.50
2022-11-29T00:35:43.086Z,24.60
2022-11-29T00:36:43.110Z,28.60
2022-11-29T00:37:43.069Z,27.10
2022-11-29T00:38:43.067Z,26.10
2022-11-29T00:39:43.043Z,25.00
2022-11-29T00:40:43.026Z,27.80
2022-11-29T00:41:43.038Z,27.40
2022-11-29T00:42:43.011Z,25.90
2022-11-29T00:43:42.992Z,23.90
2022-11-29T00:44:43.193Z,25.70
2022-11-29T00:45:43.024Z,21.00
2022-11-29T00:46:42.999Z,26.10
2022-11-29T00:47:42.944Z,27.80
2022-11-29T00:48:42.948Z,25.70
2022-11-29T00:49:42.932Z,28.00
2022-11-29T00:50:42.918Z,28.20
2022-11-29T00:51:42.929Z,23.90
2022-11-29T00:52:42.906Z,27.80
2022-11-29T00:53:42.891Z,27.60
2022-11-29T00:54:43.377Z,26.30
2022-11-29T00:55:42.866Z,24.40
2022-11-29T00:56:42.874Z,28.10
2022-11-29T00:57:42.840Z,28.30
2022-11-29T00:58:42.831Z,27.00
2022-11-29T00:59:42.835Z,26.30
2022-11-29T01:00:42.815Z,29.30
2022-11-29T01:01:42.874Z,27.50
2022-11-29T01:02:42.831Z,25.80
2022-11-29T01:03:42.780Z,27.00
2022-11-29T01:04:43.142Z,29.70
2022-11-29T01:05:42.767Z,27.50
2022-11-29T01:06:42.768Z,31.70
2022-11-29T01:07:42.768Z,26.80
2022-11-29T01:08:42.718Z,29.90
2022-11-29T01:09:42.723Z,27.70
2022-11-29T01:10:42.703Z,27.40
2022-11-29T01:11:42.715Z,28.60
2022-11-29T01:12:42.683Z,28.60
2022-11-29T01:13:42.689Z,31.20
2022-11-29T01:14:43.074Z,31.20
2022-11-29T01:15:42.649Z,31.00
2022-11-29T01:16:42.738Z,33.10
2022-11-29T01:17:42.626Z,31.40
2022-11-29T01:18:42.616Z,33.20
2022-11-29T01:19:47.837Z,35.10
2022-11-29T01:20:42.596Z,30.30
2022-11-29T01:21:42.634Z,31.10
2022-11-29T01:22:42.572Z,33.30
2022-11-29T01:23:42.571Z,32.40
2022-11-29T01:24:42.902Z,31.50
2022-11-29T01:25:42.536Z,37.80
2022-11-29T01:26:42.553Z,34.50
2022-11-29T01:27:42.518Z,35.70
2022-11-29T01:28:42.502Z,34.10
2022-11-29T01:29:42.504Z,32.30
2022-11-29T01:30:42.530Z,34.90
2022-11-29T01:31:42.484Z,31.80
2022-11-29T01:32:42.482Z,33.60
2022-11-29T01:33:42.456Z,32.40
2022-11-29T01:34:43.002Z,34.30
2022-11-29T01:35:42.460Z,34.70
2022-11-29T01:36:42.447Z,36.50
2022-11-29T01:37:42.413Z,37.30
2022-11-29T01:38:42.410Z,34.70
2022-11-29T01:39:42.447Z,35.40
2022-11-29T01:40:42.376Z,34.40
2022-11-29T01:41:42.385Z,36.10
2022-11-29T01:42:42.356Z,35.40
2022-11-29T01:43:42.344Z,39.20
2022-11-29T01:44:42.776Z,35.50
2022-11-29T01:45:42.397Z,36.80
2022-11-29T01:46:42.305Z,39.70
2022-11-29T01:47:42.310Z,40.30
2022-11-29T01:48:42.286Z,42.80
2022-11-29T01:49:42.280Z,38.40
2022-11-29T01:50:42.280Z,38.00
2022-11-29T01:51:42.278Z,35.70
2022-11-29T01:52:42.255Z,36.80
2022-11-29T01:53:42.237Z,37.70
2022-11-29T01:54:42.575Z,38.00
2022-11-29T01:55:42.263Z,41.10
2022-11-29T01:56:42.198Z,43.40
2022-11-29T01:57:42.209Z,44.70
2022-11-29T01:58:42.191Z,48.70
2022-11-29T01:59:42.181Z,39.70
2022-11-29T02:00:42.157Z,41.20
2022-11-29T02:01:42.214Z,41.00
2022-11-29T02:02:42.208Z,41.00
2022-11-29T02:03:42.144Z,41.10
2022-11-29T02:04:42.488Z,46.30
2022-11-29T02:05:42.101Z,38.50
2022-11-29T02:06:42.093Z,38.00
2022-11-29T02:07:42.143Z,39.00
2022-11-29T02:08:42.076Z,40.20
2022-11-29T02:09:42.073Z,40.90
2022-11-29T02:10:42.053Z,39.20
2022-11-29T02:11:42.047Z,40.80
2022-11-29T02:12:42.046Z,39.80
2022-11-29T02:13:42.025Z,43.50
2022-11-29T02:14:42.116Z,36.70
2022-11-29T02:15:42.022Z,40.00
2022-11-29T02:16:41.988Z,42.20
2022-11-29T02:17:42.013Z,45.00
2022-11-29T02:18:41.961Z,42.90
2022-11-29T02:19:41.965Z,42.00
2022-11-29T02:20:41.937Z,38.90
2022-11-29T02:21:41.951Z,43.90
2022-11-29T02:22:41.941Z,42.80
2022-11-29T02:23:41.924Z,49.60
2022-11-29T02:24:42.188Z,45.90
2022-11-29T02:25:41.886Z,42.40
2022-11-29T02:26:41.887Z,43.20
2022-11-29T02:27:41.887Z,38.60
2022-11-29T02:28:41.855Z,42.60
2022-11-29T02:29:41.838Z,42.70
2022-11-29T02:30:41.895Z,42.80
2022-11-29T02:31:41.822Z,44.60
2022-11-29T02:32:41.826Z,43.60
2022-11-29T02:33:41.804Z,45.40
2022-11-29T02:34:41.997Z,42.90
2022-11-29T02:35:41.779Z,41.90
2022-11-29T02:36:41.770Z,41.60
2022-11-29T02:37:41.773Z,44.20
2022-11-29T02:38:41.753Z,41.10
2022-11-29T02:39:41.777Z,45.40
2022-11-29T02:40:41.728Z,45.50
2022-11-29T02:41:41.719Z,43.50
2022-11-29T02:42:41.717Z,42.90
2022-11-29T02:43:41.687Z,48.20
2022-11-29T02:44:41.832Z,42.60
2022-11-29T02:45:41.668Z,42.90
2022-11-29T02:46:41.663Z,46.00
2022-11-29T02:47:41.670Z,48.30
2022-11-29T02:48:41.637Z,48.10
2022-11-29T02:49:41.620Z,45.40
2022-11-29T02:50:41.606Z,47.90
2022-11-29T02:51:41.624Z,49.30
2022-11-29T02:52:41.610Z,43.20
2022-11-29T02:53:41.583Z,46.00
2022-11-29T02:54:41.763Z,44.20
2022-11-29T02:55:41.551Z,45.90
2022-11-29T02:56:41.547Z,45.70
2022-11-29T02:57:41.571Z,43.80
2022-11-29T02:58:41.517Z,50.30
2022-11-29T02:59:41.541Z,47.90
2022-11-29T03:00:41.514Z,43.10
2022-11-29T03:01:41.588Z,44.50
2022-11-29T03:02:41.568Z,45.60
2022-11-29T03:03:41.471Z,44.40
2022-11-29T03:04:41.578Z,48.80
2022-11-29T03:05:41.452Z,42.60
2022-11-29T03:06:41.439Z,46.40
2022-11-29T03:07:41.504Z,52.50
2022-11-29T03:08:41.412Z,47.80
2022-11-29T03:09:41.403Z,49.00
2022-11-29T03:10:41.427Z,51.20
2022-11-29T03:11:41.392Z,52.30
2022-11-29T03:12:41.381Z,48.30
2022-11-29T03:13:41.362Z,51.00
2022-11-29T03:14:41.365Z,49.20
2022-11-29T03:15:41.370Z,47.80
2022-11-29T03:16:43.359Z,48.90
2022-11-29T03:17:41.330Z,48.30
2022-11-29T03:18:41.318Z,50.70
2022-11-29T03:19:41.292Z,50.60
2022-11-29T03:20:41.320Z,49.10
2022-11-29T03:21:41.274Z,50.40
2022-11-29T03:22:41.280Z,48.10
2022-11-29T03:23:41.256Z,49.50
2022-11-29T03:24:41.238Z,50.70
2022-11-29T03:25:41.257Z,47.00
2022-11-29T03:26:41.220Z,51.60
2022-11-29T03:27:41.244Z,50.10
2022-11-29T03:28:41.202Z,51.10
2022-11-29T03:29:41.189Z,52.60
2022-11-29T03:30:41.219Z,47.70
2022-11-29T03:31:41.173Z,48.40
2022-11-29T03:32:41.166Z,48.40
2022-11-29T03:33:41.137Z,45.90
2022-11-29T03:34:41.145Z,48.30
2022-11-29T03:35:41.130Z,49.90
2022-11-29T03:36:41.116Z,54.60
2022-11-29T03:37:41.118Z,51.40
2022-11-29T03:38:41.088Z,54.70
2022-11-29T03:39:41.121Z,48.20
2022-11-29T03:40:41.086Z,48.40
2022-11-29T03:41:41.086Z,47.90
2022-11-29T03:42:41.070Z,52.30
2022-11-29T03:43:41.032Z,45.70
2022-11-29T03:44:41.069Z,56.70
2022-11-29T03:45:41.032Z,54.30
2022-11-29T03:46:41.055Z,48.60
2022-11-29T03:47:41.033Z,48.10
2022-11-29T03:48:41.007Z,48.90
2022-11-29T03:49:40.975Z,51.50
2022-11-29T03:50:40.966Z,44.90
2022-11-29T03:51:40.950Z,53.70
2022-11-29T03:52:40.984Z,53.10
2022-11-29T03:53:40.922Z,52.40
2022-11-29T03:54:40.928Z,50.40
2022-11-29T03:55:40.901Z,49.30
2022-11-29T03:56:40.893Z,50.10
2022-11-29T03:57:40.906Z,50.00
2022-11-29T03:58:40.874Z,51.00
2022-11-29T03:59:40.869Z,52.40
2022-11-29T04:00:40.850Z,45.30
2022-11-29T04:01:40.916Z,54.40
2022-11-29T04:02:40.918Z,53.70
2022-11-29T04:03:40.813Z,55.10
2022-11-29T04:04:40.809Z,53.60
2022-11-29T04:05:40.794Z,53.00
2022-11-29T04:06:40.788Z,52.00
2022-11-29T04:07:40.830Z,51.30
2022-11-29T04:08:40.770Z,53.20
2022-11-29T04:09:40.757Z,47.00
2022-11-29T04:10:40.745Z,52.30
2022-11-29T04:11:40.732Z,49.60
2022-11-29T04:12:40.733Z,53.70
2022-11-29T04:13:40.732Z,52.30
2022-11-29T04:14:40.703Z,47.70
2022-11-29T04:15:40.727Z,56.20
2022-11-29T04:16:40.670Z,52.10
2022-11-29T04:17:40.680Z,49.50
2022-11-29T04:18:40.672Z,49.00
2022-11-29T04:19:40.643Z,46.90
2022-11-29T04:20:45.325Z,49.90
2022-11-29T04:21:40.627Z,49.40
2022-11-29T04:22:40.619Z,52.20
2022-11-29T04:23:40.622Z,52.40
2022-11-29T04:24:40.587Z,51.10
2022-11-29T04:25:47.142Z,52.80
2022-11-29T04:26:40.563Z,46.60
2022-11-29T04:27:40.573Z,51.90
2022-11-29T04:28:40.549Z,53.30
2022-11-29T04:29:40.536Z,50.30
2022-11-29T04:30:40.541Z,52.60
2022-11-29T04:31:40.514Z,52.40
2022-11-29T04:32:40.517Z,53.50
2022-11-29T04:33:40.495Z,52.80
2022-11-29T04:34:40.495Z,59.30
2022-11-29T04:35:40.469Z,49.10
2022-11-29T04:36:40.446Z,53.50
2022-11-29T04:37:40.465Z,46.40
2022-11-29T04:38:40.476Z,55.50
2022-11-29T04:39:40.428Z,45.80
2022-11-29T04:40:40.470Z,52.00
2022-11-29T04:41:40.408Z,51.70
2022-11-29T04:42:40.405Z,52.60
2022-11-29T04:43:40.415Z,46.30
2022-11-29T04:44:40.373Z,52.90
2022-11-29T04:45:40.351Z,53.60
2022-11-29T04:46:40.394Z,45.30
2022-11-29T04:47:40.343Z,50.30
2022-11-29T04:48:40.342Z,51.60
2022-11-29T04:49:40.325Z,56.90
2022-11-29T04:50:40.318Z,54.50
2022-11-29T04:51:40.294Z,52.40
2022-11-29T04:52:40.291Z,55.00
2022-11-29T04:53:40.291Z,56.80
2022-11-29T04:54:40.248Z,52.40
2022-11-29T04:55:40.270Z,51.80
2022-11-29T04:56:40.247Z,57.00
2022-11-29T04:57:40.239Z,49.10
2022-11-29T04:58:40.234Z,53.00
2022-11-29T04:59:40.212Z,54.70
2022-11-29T05:00:40.209Z,50.00
2022-11-29T05:01:40.237Z,49.10
2022-11-29T05:02:40.193Z,52.50
2022-11-29T05:03:40.195Z,57.00
2022-11-29T05:04:40.159Z,52.90
2022-11-29T05:05:40.159Z,48.70
2022-11-29T05:06:40.130Z,54.90
2022-11-29T05:07:40.145Z,50.70
2022-11-29T05:08:40.130Z,52.10
2022-11-29T05:09:40.098Z,56.90
2022-11-29T05:10:40.087Z,53.30
2022-11-29T05:11:40.077Z,54.80
2022-11-29T05:12:40.070Z,50.40
2022-11-29T05:13:40.066Z,54.10
2022-11-29T05:14:40.054Z,51.40
2022-11-29T05:15:40.076Z,50.60
2022-11-29T05:16:40.015Z,55.10
2022-11-29T05:17:40.038Z,59.20
2022-11-29T05:18:40.023Z,51.00
2022-11-29T05:19:39.991Z,50.90
2022-11-29T05:20:39.984Z,50.40
2022-11-29T05:21:39.977Z,50.00
2022-11-29T05:22:39.959Z,48.50
2022-11-29T05:23:39.970Z,51.10
2022-11-29T05:24:39.934Z,55.70
2022-11-29T05:25:39.926Z,54.70
2022-11-29T05:26:39.913Z,54.40
2022-11-29T05:27:39.903Z,52.40
2022-11-29T05:28:39.908Z,51.50
2022-11-29T05:29:39.882Z,52.10
2022-11-29T05:30:39.867Z,46.50
2022-11-29T05:31:39.916Z,56.00
2022-11-29T05:32:39.847Z,51.20
2022-11-29T05:33:39.863Z,47.60
2022-11-29T05:34:39.814Z,51.80
2022-11-29T05:35:39.823Z,51.50
2022-11-29T05:36:39.812Z,49.70
2022-11-29T05:37:39.829Z,50.80
2022-11-29T05:38:39.839Z,54.30
2022-11-29T05:39:39.772Z,51.50
2022-11-29T05:40:39.756Z,55.60
2022-11-29T05:41:39.754Z,53.30
2022-11-29T05:42:39.741Z,53.80
2022-11-29T05:43:39.745Z,51.90
2022-11-29T05:44:39.723Z,58.20
2022-11-29T05:45:39.744Z,49.10
2022-11-29T05:46:39.731Z,50.20
2022-11-29T05:47:39.692Z,58.50
2022-11-29T05:48:39.711Z,55.60
2022-11-29T05:49:39.661Z,58.00
2022-11-29T05:50:39.648Z,57.70
2022-11-29T05:51:39.643Z,52.10
2022-11-29T05:52:39.625Z,57.90
2022-11-29T05:53:39.646Z,50.50
2022-11-29T05:54:39.604Z,54.00
2022-11-29T05:55:39.630Z,56.70
2022-11-29T05:56:39.585Z,56.60
2022-11-29T05:57:39.568Z,61.20
2022-11-29T05:58:39.608Z,51.50
2022-11-29T05:59:39.545Z,57.00
2022-11-29T06:00:39.530Z,51.30
2022-11-29T06:01:39.580Z,53.60
2022-11-29T06:02:39.550Z,54.40
2022-11-29T06:03:39.521Z,53.00
2022-11-29T06:04:39.510Z,54.60
2022-11-29T06:05:39.479Z,57.50
2022-11-29T06:06:39.478Z,54.80
2022-11-29T06:07:39.509Z,54.20
2022-11-29T06:08:39.466Z,56.70
2022-11-29T06:09:39.492Z,52.80
2022-11-29T06:10:39.438Z,52.00
2022-11-29T06:11:39.418Z,54.20
2022-11-29T06:12:39.415Z,51.70
2022-11-29T06:13:39.412Z,50.60
2022-11-29T06:14:39.394Z,53.90
2022-11-29T06:15:39.373Z,54.60
2022-11-29T06:16:39.371Z,54.40
2022-11-29T06:17:39.609Z,55.50
2022-11-29T06:18:39.352Z,59.60
2022-11-29T06:19:39.331Z,54.00
2022-11-29T06:20:39.344Z,53.20
2022-11-29T06:21:39.310Z,52.20
2022-11-29T06:22:39.302Z,54.00
2022-11-29T06:23:39.330Z,48.70
2022-11-29T06:24:39.277Z,49.40
2022-11-29T06:25:39.258Z,56.90
2022-11-29T06:26:39.258Z,51.50
2022-11-29T06:27:39.245Z,53.70
2022-11-29T06:28:39.239Z,56.20
2022-11-29T06:29:39.227Z,53.60
2022-11-29T06:30:39.214Z,58.80
2022-11-29T06:31:39.282Z,51.00
2022-11-29T06:32:39.194Z,57.30
2022-11-29T06:33:39.192Z,56.80
2022-11-29T06:34:39.182Z,61.70
2022-11-29T06:35:39.164Z,55.50
2022-11-29T06:36:39.147Z,58.10
2022-11-29T06:37:39.141Z,56.30
2022-11-29T06:38:39.141Z,62.00
2022-11-29T06:39:39.118Z,53.90
2022-11-29T06:40:39.107Z,54.90
2022-11-29T06:41:39.092Z,50.80
2022-11-29T06:42:39.132Z,58.40
2022-11-29T06:43:39.097Z,55.80
2022-11-29T06:44:39.055Z,57.30
2022-11-29T06:45:39.070Z,54.60
2022-11-29T06:46:39.826Z,55.40
2022-11-29T06:47:39.030Z,57.80
2022-11-29T06:48:39.040Z,59.30
2022-11-29T06:49:39.060Z,59.50
2022-11-29T06:50:39.010Z,58.70
2022-11-29T06:51:38.986Z,56.60
2022-11-29T06:52:38.986Z,61.90
2022-11-29T06:53:39.016Z,55.30
2022-11-29T06:54:38.956Z,64.90
2022-11-29T06:55:38.944Z,57.50
2022-11-29T06:56:40.802Z,53.70
2022-11-29T06:57:38.929Z,52.90
2022-11-29T06:58:38.934Z,55.50
2022-11-29T06:59:38.911Z,55.00
2022-11-29T07:00:38.931Z,60.10
2022-11-29T07:01:38.938Z,53.60
2022-11-29T07:02:38.870Z,57.30
2022-11-29T07:03:38.873Z,56.90
2022-11-29T07:04:44.147Z,56.30
2022-11-29T07:05:38.842Z,60.20
2022-11-29T07:06:38.829Z,60.10
2022-11-29T07:07:39.493Z,58.70
2022-11-29T07:08:38.835Z,58.40
2022-11-29T07:09:38.801Z,53.60
2022-11-29T07:10:38.824Z,53.50
2022-11-29T07:11:38.776Z,59.70
2022-11-29T07:12:38.764Z,59.00
2022-11-29T07:13:38.771Z,58.00
2022-11-29T07:14:38.745Z,62.60
2022-11-29T07:15:38.727Z,52.70
2022-11-29T07:16:38.795Z,54.30
2022-11-29T07:17:39.295Z,61.20
2022-11-29T07:18:38.720Z,59.00
2022-11-29T07:19:38.682Z,57.40
2022-11-29T07:20:38.680Z,63.80
2022-11-29T07:21:38.649Z,55.10
2022-11-29T07:22:38.662Z,62.70
2022-11-29T07:23:38.661Z,58.20
2022-11-29T07:24:38.621Z,56.40
2022-11-29T07:25:38.612Z,56.40
2022-11-29T07:26:38.635Z,56.50
2022-11-29T07:27:38.599Z,62.60
2022-11-29T07:28:38.608Z,64.50
2022-11-29T07:29:38.570Z,60.80
2022-11-29T07:30:38.573Z,53.70
2022-11-29T07:31:38.609Z,60.70
2022-11-29T07:32:38.532Z,58.60
2022-11-29T07:33:38.541Z,58.60
2022-11-29T07:34:38.533Z,60.50
2022-11-29T07:35:38.524Z,61.20
2022-11-29T07:36:38.494Z,60.90
2022-11-29T07:37:38.482Z,56.70
2022-11-29T07:38:38.494Z,56.60
2022-11-29T07:39:38.471Z,59.70
2022-11-29T07:40:38.452Z,51.20
2022-11-29T07:41:38.440Z,55.90
2022-11-29T07:42:38.428Z,56.40
2022-11-29T07:43:38.426Z,63.00
2022-11-29T07:44:38.422Z,61.90
2022-11-29T07:45:38.394Z,56.00
2022-11-29T07:46:38.423Z,58.50
2022-11-29T07:47:38.372Z,61.40
2022-11-29T07:48:38.380Z,59.10
2022-11-29T07:49:38.365Z,63.30
2022-11-29T07:50:38.350Z,66.10
2022-11-29T07:51:38.386Z,63.00
2022-11-29T07:52:38.324Z,62.30
2022-11-29T07:53:38.314Z,59.10
2022-11-29T07:54:38.313Z,59.30
2022-11-29T07:55:38.288Z,61.80
2022-11-29T07:56:38.308Z,61.40
2022-11-29T07:57:38.265Z,60.00
2022-11-29T07:58:38.279Z,61.50
2022-11-29T07:59:38.266Z,62.10
2022-11-29T08:00:38.265Z,58.90
2022-11-29T08:01:38.314Z,61.10
2022-11-29T08:02:38.264Z,58.90
2022-11-29T08:03:38.201Z,57.30
2022-11-29T08:04:38.202Z,59.90
2022-11-29T08:05:38.183Z,63.50
2022-11-29T08:06:38.179Z,57.70
2022-11-29T08:07:38.253Z,62.70
2022-11-29T08:08:43.695Z,55.50
2022-11-29T08:09:38.151Z,65.00
2022-11-29T08:10:38.130Z,64.50
2022-11-29T08:11:38.148Z,62.20
2022-11-29T08:12:38.103Z,58.90
2022-11-29T08:13:38.099Z,58.40
2022-11-29T08:14:38.095Z,57.70
2022-11-29T08:15:38.074Z,61.40
2022-11-29T08:16:38.168Z,59.80
2022-11-29T08:17:38.062Z,59.90
2022-11-29T08:18:38.034Z,60.80
2022-11-29T08:19:38.049Z,58.40
2022-11-29T08:20:38.026Z,59.10
2022-11-29T08:21:38.043Z,65.70
2022-11-29T08:22:38.010Z,62.40
2022-11-29T08:23:37.978Z,63.30
2022-11-29T08:24:38.004Z,61.20
2022-11-29T08:25:37.964Z,59.90
2022-11-29T08:26:37.947Z,61.30
2022-11-29T08:27:37.957Z,64.20
2022-11-29T08:28:37.931Z,54.60
2022-11-29T08:29:37.938Z,62.00
2022-11-29T08:30:37.914Z,63.90
2022-11-29T08:31:37.960Z,60.30
2022-11-29T08:32:37.890Z,61.10
2022-11-29T08:33:37.876Z,63.50
2022-11-29T08:34:37.895Z,59.60
2022-11-29T08:35:37.863Z,60.60
2022-11-29T08:36:37.833Z,57.30
2022-11-29T08:37:37.892Z,61.30
2022-11-29T08:38:37.816Z,58.80
2022-11-29T08:39:37.828Z,59.40
2022-11-29T08:40:37.815Z,59.20
2022-11-29T08:41:37.793Z,63.80
2022-11-29T08:42:37.783Z,63.30
2022-11-29T08:43:37.773Z,58.90
2022-11-29T08:44:37.781Z,62.80
2022-11-29T08:45:37.782Z,58.90
2022-11-29T08:46:37.734Z,57.00
2022-11-29T08:47:37.739Z,59.20
2022-11-29T08:48:37.737Z,56.10
2022-11-29T08:49:37.708Z,62.40
2022-11-29T08:50:37.688Z,56.90
2022-11-29T08:51:37.668Z,60.30
2022-11-29T08:52:37.675Z,62.20
2022-11-29T08:53:37.674Z,57.70
2022-11-29T08:54:37.665Z,61.00
2022-11-29T08:55:37.658Z,62.30
2022-11-29T08:57:40.573Z,59.10
2022-11-29T08:58:37.612Z,59.10
2022-11-29T08:59:37.610Z,57.00
2022-11-29T09:00:37.581Z,63.50
2022-11-29T09:01:37.607Z,59.20
2022-11-29T09:02:37.680Z,57.00
2022-11-29T09:03:37.547Z,62.10
2022-11-29T09:04:37.555Z,62.40
2022-11-29T09:05:37.528Z,54.40
2022-11-29T09:06:38.434Z,56.70
2022-11-29T09:07:37.782Z,60.50
2022-11-29T09:08:37.493Z,60.20
2022-11-29T09:09:37.509Z,58.10
2022-11-29T09:10:37.469Z,60.70
2022-11-29T09:11:37.463Z,55.80
2022-11-29T09:12:37.458Z,62.40
2022-11-29T09:13:37.449Z,59.80
2022-11-29T09:14:37.440Z,58.00
2022-11-29T09:15:37.456Z,58.90
2022-11-29T09:16:37.433Z,57.50
2022-11-29T09:17:37.407Z,58.10
2022-11-29T09:18:37.406Z,58.10
2022-11-29T09:19:37.390Z,60.20
2022-11-29T09:20:37.397Z,55.60
2022-11-29T09:21:37.341Z,54.10
2022-11-29T09:22:37.347Z,57.90
2022-11-29T09:23:37.331Z,57.10
2022-11-29T09:24:37.332Z,52.60
2022-11-29T09:25:37.348Z,55.40
2022-11-29T09:26:37.314Z,59.30
2022-11-29T09:27:37.284Z,55.30
2022-11-29T09:28:37.281Z,57.70
2022-11-29T09:29:37.304Z,55.20
2022-11-29T09:30:37.254Z,57.40
2022-11-29T09:31:37.283Z,60.70
2022-11-29T09:32:37.228Z,60.10
2022-11-29T09:33:37.250Z,56.70
2022-11-29T09:34:37.224Z,59.10
2022-11-29T09:35:37.197Z,55.60
2022-11-29T09:36:37.193Z,58.80
2022-11-29T09:37:37.198Z,55.90
2022-11-29T09:38:37.190Z,54.80
2022-11-29T09:39:37.172Z,56.20
2022-11-29T09:40:37.157Z,53.90
2022-11-29T09:41:37.130Z,61.40
2022-11-29T09:42:37.121Z,57.40
2022-11-29T09:43:37.114Z,57.40
2022-11-29T09:44:37.113Z,58.20
2022-11-29T09:45:37.105Z,54.50
2022-11-29T09:46:37.086Z,52.30
2022-11-29T09:47:37.075Z,57.00
2022-11-29T09:48:37.087Z,54.20
2022-11-29T09:49:37.069Z,57.90
2022-11-29T09:50:37.029Z,53.40
2022-11-29T09:51:42.712Z,56.50
2022-11-29T09:52:37.039Z,56.20
2022-11-29T09:53:37.001Z,48.70
2022-11-29T09:54:37.008Z,56.70
2022-11-29T09:55:37.009Z,57.40
2022-11-29T09:56:36.967Z,54.80
2022-11-29T09:57:36.970Z,55.90
2022-11-29T09:58:36.945Z,57.40
2022-11-29T09:59:36.959Z,58.60
2022-11-29T10:00:36.948Z,54.10
2022-11-29T10:01:36.961Z,58.70
2022-11-29T10:02:36.937Z,54.70
2022-11-29T10:03:36.912Z,55.60
2022-11-29T10:04:36.898Z,54.30
2022-11-29T10:05:36.911Z,58.10
2022-11-29T10:06:36.874Z,51.50
2022-11-29T10:07:36.905Z,57.30
2022-11-29T10:08:36.837Z,56.30
2022-11-29T10:09:36.938Z,58.70
2022-11-29T10:10:36.851Z,54.00
2022-11-29T10:11:36.820Z,55.30
2022-11-29T10:12:36.810Z,56.10
2022-11-29T10:13:36.829Z,47.80
2022-11-29T10:14:36.815Z,55.10
2022-11-29T10:15:36.764Z,55.80
2022-11-29T10:16:36.811Z,57.10
2022-11-29T10:17:36.757Z,54.30
2022-11-29T10:18:36.760Z,57.40
2022-11-29T10:19:36.773Z,53.30
2022-11-29T10:20:41.439Z,56.00
2022-11-29T10:21:36.715Z,57.70
2022-11-29T10:22:36.686Z,57.70
2022-11-29T10:23:36.676Z,55.70
2022-11-29T10:24:36.685Z,54.80
2022-11-29T10:25:36.659Z,55.20
2022-11-29T10:26:43.192Z,57.70
2022-11-29T10:27:36.633Z,57.20
2022-11-29T10:28:36.616Z,59.10
2022-11-29T10:29:36.627Z,55.00
2022-11-29T10:30:36.622Z,57.40
2022-11-29T10:31:36.585Z,56.40
2022-11-29T10:32:36.576Z,59.00
2022-11-29T10:33:36.577Z,59.70
2022-11-29T10:34:36.569Z,57.00
2022-11-29T10:35:36.547Z,54.80
2022-11-29T10:36:36.542Z,54.70
2022-11-29T10:37:36.525Z,59.20
2022-11-29T10:38:36.511Z,54.80
2022-11-29T10:39:36.542Z,57.30
2022-11-29T10:40:36.492Z,59.60
2022-11-29T10:41:36.484Z,54.50
2022-11-29T10:42:36.472Z,56.50
2022-11-29T10:43:36.452Z,53.90
2022-11-29T10:44:36.479Z,55.00
2022-11-29T10:45:36.505Z,60.60
2022-11-29T10:46:36.419Z,56.70
2022-11-29T10:47:36.418Z,57.60
2022-11-29T10:48:36.408Z,60.30
2022-11-29T10:49:36.406Z,53.70
2022-11-29T10:50:36.402Z,57.90
2022-11-29T10:51:36.370Z,57.00
2022-11-29T10:52:36.375Z,61.20
2022-11-29T10:53:36.347Z,59.40
2022-11-29T10:54:36.354Z,53.90
2022-11-29T10:55:36.324Z,59.40
2022-11-29T10:56:36.316Z,57.80
2022-11-29T10:57:36.312Z,54.00
2022-11-29T10:58:36.296Z,57.80
2022-11-29T10:59:36.311Z,54.90
2022-11-29T11:00:36.276Z,56.40
2022-11-29T11:01:36.294Z,51.50
2022-11-29T11:02:36.241Z,56.10
2022-11-29T11:03:36.240Z,56.20
2022-11-29T11:04:36.239Z,56.40
2022-11-29T11:05:36.264Z,53.20
2022-11-29T11:06:36.203Z,58.10
2022-11-29T11:07:36.291Z,53.50
2022-11-29T11:08:36.195Z,53.20
2022-11-29T11:09:36.194Z,54.80
2022-11-29T11:10:36.171Z,55.00
2022-11-29T11:11:36.151Z,56.10
2022-11-29T11:12:36.140Z,56.00
2022-11-29T11:13:36.143Z,59.90
2022-11-29T11:14:36.170Z,60.60
2022-11-29T11:15:36.117Z,58.60
2022-11-29T11:16:37.718Z,59.40
2022-11-29T11:17:36.088Z,57.10
2022-11-29T11:18:36.077Z,59.70
2022-11-29T11:19:36.088Z,62.20
2022-11-29T11:20:36.083Z,54.10
2022-11-29T11:21:36.041Z,56.70
2022-11-29T11:22:36.037Z,59.80
2022-11-29T11:23:39.876Z,56.30
2022-11-29T11:24:36.025Z,60.60
2022-11-29T11:25:36.033Z,57.00
2022-11-29T11:26:35.990Z,61.50
2022-11-29T11:27:35.994Z,58.00
2022-11-29T11:28:35.969Z,57.70
2022-11-29T11:29:35.973Z,58.00
2022-11-29T11:30:36.020Z,61.50
2022-11-29T11:31:35.948Z,51.10
2022-11-29T11:32:35.930Z,55.60
2022-11-29T11:33:35.908Z,56.00
2022-11-29T11:34:35.943Z,57.00
2022-11-29T11:35:35.891Z,59.10
2022-11-29T11:36:35.888Z,54.90
2022-11-29T11:37:35.894Z,53.20
2022-11-29T11:38:35.862Z,53.90
2022-11-29T11:39:35.870Z,55.20
2022-11-29T11:40:35.902Z,55.70
2022-11-29T11:41:35.830Z,56.80
2022-11-29T11:42:35.830Z,54.90
2022-11-29T11:43:35.800Z,58.70
2022-11-29T11:44:51.228Z,57.40
2022-11-29T11:45:35.850Z,58.70
2022-11-29T11:46:35.813Z,55.10
2022-11-29T11:47:35.780Z,51.70
2022-11-29T11:48:35.746Z,51.50
2022-11-29T11:49:35.761Z,54.80
2022-11-29T11:50:35.737Z,54.40
2022-11-29T11:51:35.748Z,57.10
2022-11-29T11:52:39.837Z,55.40
2022-11-29T11:53:35.731Z,55.60
2022-11-29T11:54:35.754Z,54.20
2022-11-29T11:55:35.690Z,53.40
2022-11-29T11:56:35.657Z,56.90
2022-11-29T11:57:35.677Z,57.50
2022-11-29T11:58:35.670Z,59.50
2022-11-29T11:59:35.666Z,55.60
2022-11-29T12:01:02.291Z,58.00
2022-11-29T12:01:35.626Z,52.60
2022-11-29T12:02:35.674Z,57.20
2022-11-29T12:03:35.679Z,57.30
2022-11-29T12:04:35.590Z,57.80
2022-11-29T12:05:35.616Z,55.00
2022-11-29T12:06:35.566Z,60.80
2022-11-29T12:08:06.261Z,60.50
2022-11-29T12:08:35.599Z,61.20
2022-11-29T12:09:35.553Z,54.80
2022-11-29T12:10:35.535Z,58.70
2022-11-29T12:11:35.507Z,55.70
2022-11-29T12:12:35.513Z,55.90
2022-11-29T12:13:35.477Z,60.10
2022-11-29T12:14:35.460Z,57.30
2022-11-29T12:15:35.583Z,58.50
2022-11-29T12:16:35.442Z,57.10
2022-11-29T12:17:35.544Z,55.20
2022-11-29T12:18:35.422Z,54.30
2022-11-29T12:19:35.413Z,55.70
2022-11-29T12:20:35.437Z,63.40
2022-11-29T12:21:35.402Z,58.00
2022-11-29T12:22:35.382Z,54.70
2022-11-29T12:23:35.366Z,58.40
2022-11-29T12:24:35.388Z,55.40
2022-11-29T12:25:35.361Z,55.60
2022-11-29T12:26:56.447Z,56.40
2022-11-29T12:27:35.478Z,53.70
2022-11-29T12:28:35.312Z,54.70
2022-11-29T12:29:35.297Z,55.60
2022-11-29T12:30:35.322Z,53.10
2022-11-29T12:31:35.347Z,54.90
2022-11-29T12:32:35.264Z,53.60
2022-11-29T12:33:35.276Z,55.30
2022-11-29T12:34:35.251Z,50.70
2022-11-29T12:35:35.256Z,54.70
2022-11-29T12:36:35.243Z,60.20
2022-11-29T12:37:35.224Z,53.40
2022-11-29T12:38:35.201Z,53.90
2022-11-29T12:39:35.201Z,54.80
2022-11-29T12:40:35.202Z,57.50
2022-11-29T12:41:35.171Z,53.00
2022-11-29T12:42:35.166Z,53.50
2022-11-29T12:43:35.153Z,55.80
2022-11-29T12:44:35.154Z,56.20
2022-11-29T12:45:35.145Z,54.90
2022-11-29T12:46:35.148Z,55.20
2022-11-29T12:47:36.573Z,55.20
2022-11-29T12:48:35.097Z,58.80
2022-11-29T12:49:35.103Z,56.10
2022-11-29T12:50:35.102Z,57.20
2022-11-29T12:51:35.072Z,54.40
2022-11-29T12:52:35.050Z,48.90
2022-11-29T12:53:35.041Z,53.60